Time;durP1;ratioP1;P1;durP2;ratioP2;P2;SDS_P1;SDS_P2;PMS_P1;PMS_P2;Temp;Humidity;BMP_temperature;BMP_pressure;BME280_temperature;BME280_humidity;BME280_pressure;Samples;Min_cycle;Max_cycle;Signal;HPM_P1;HPM_P2
2023/07/21 00:01:47;;;;;;;56.80;2.30;;;;;;;;;;5093914;28;20833;-70
2023/07/21 00:04:14;;;;;;;56.70;2.27;;;;;;;;;;5094154;28;20450;-70
2023/07/21 00:06:43;;;;;;;56.97;2.20;;;;;;;;;;5094375;28;20491;-70
2023/07/21 00:09:11;;;;;;;56.67;2.20;;;;;;;;;;5094389;28;20629;-70
2023/07/21 00:11:39;;;;;;;57.00;2.40;;;;;;;;;;5093799;28;20986;-70
2023/07/21 00:14:06;;;;;;;56.63;2.13;;;;;;;;;;5094174;28;20450;-69
2023/07/21 00:16:33;;;;;;;56.83;2.20;;;;;;;;;;5093890;28;20473;-70
2023/07/21 00:19:01;;;;;;;56.90;2.30;;;;;;;;;;5094142;28;20553;-70
2023/07/21 00:21:28;;;;;;;57.20;2.73;;;;;;;;;;5093788;28;20978;-70
2023/07/21 00:23:57;;;;;;;56.67;2.20;;;;;;;;;;5083098;28;20872;-70
2023/07/21 00:26:25;;;;;;;56.87;2.30;;;;;;;;;;5084353;28;20817;-70
2023/07/21 00:28:52;;;;;;;56.90;2.30;;;;;;;;;;5083226;28;20835;-71
2023/07/21 00:31:19;;;;;;;59.30;3.03;;;;;;;;;;5085823;28;20459;-69
2023/07/21 00:33:47;;;;;;;59.17;2.80;;;;;;;;;;5090551;28;20931;-69
2023/07/21 00:36:14;;;;;;;56.80;2.30;;;;;;;;;;5093525;28;21016;-70
2023/07/21 00:38:42;;;;;;;57.10;2.57;;;;;;;;;;5093734;28;20451;-70
2023/07/21 00:41:10;;;;;;;57.30;2.67;;;;;;;;;;5093713;28;20881;-70
2023/07/21 00:43:37;;;;;;;57.00;2.50;;;;;;;;;;5093362;28;20524;-70
2023/07/21 00:46:04;;;;;;;56.97;2.40;;;;;;;;;;5093678;28;20933;-69
2023/07/21 00:48:33;;;;;;;56.90;2.30;;;;;;;;;;5093311;28;20451;-70
2023/07/21 00:51:00;;;;;;;56.57;2.30;;;;;;;;;;5093071;28;20461;-70
2023/07/21 00:53:27;;;;;;;56.57;2.20;;;;;;;;;;5093766;28;20473;-70
2023/07/21 00:55:54;;;;;;;56.63;2.30;;;;;;;;;;5093007;28;20454;-70
2023/07/21 00:58:23;;;;;;;56.73;2.10;;;;;;;;;;5093383;28;20446;-70
2023/07/21 01:00:50;;;;;;;56.83;2.20;;;;;;;;;;5093067;28;20453;-69
2023/07/21 01:03:19;;;;;;;56.77;2.30;;;;;;;;;;5084858;28;20481;-70
2023/07/21 01:05:49;;;;;;;56.60;2.37;;;;;;;;;;5071401;28;20861;-69
2023/07/21 01:08:16;;;;;;;56.90;2.40;;;;;;;;;;5083464;28;20452;-70
2023/07/21 01:10:44;;;;;;;56.80;2.30;;;;;;;;;;5080779;28;20444;-69
2023/07/21 01:13:11;;;;;;;56.80;2.30;;;;;;;;;;5093100;28;20823;-70
2023/07/21 01:15:44;;;;;;;57.10;2.50;;;;;;;;;;5092967;28;20449;-70
2023/07/21 01:18:12;;;;;;;56.60;2.20;;;;;;;;;;5092932;28;20539;-69
2023/07/21 01:20:39;;;;;;;57.30;3.13;;;;;;;;;;5092521;28;20541;-70
2023/07/21 01:23:11;;;;;;;57.10;3.03;;;;;;;;;;5092941;28;20548;-70
2023/07/21 01:25:42;;;;;;;56.80;2.20;;;;;;;;;;5093051;28;20446;-70
2023/07/21 01:28:12;;;;;;;56.87;2.27;;;;;;;;;;5092787;28;20795;-70
2023/07/21 01:30:40;;;;;;;56.63;2.07;;;;;;;;;;5092348;28;20453;-70
2023/07/21 01:33:08;;;;;;;56.60;2.20;;;;;;;;;;5092619;28;20462;-70
2023/07/21 01:35:36;;;;;;;56.77;2.40;;;;;;;;;;5092790;28;20977;-70
2023/07/21 01:38:04;;;;;;;56.57;2.10;;;;;;;;;;5092439;28;20486;-70
2023/07/21 01:40:31;;;;;;;57.00;2.30;;;;;;;;;;5092377;28;20457;-70
2023/07/21 01:43:00;;;;;;;56.87;2.50;;;;;;;;;;5090649;28;20557;-69
2023/07/21 01:45:27;;;;;;;56.27;2.30;;;;;;;;;;5092068;28;20443;-70
2023/07/21 01:47:55;;;;;;;56.37;2.27;;;;;;;;;;5092652;28;20451;-70
2023/07/21 01:50:23;;;;;;;56.90;2.20;;;;;;;;;;5092211;28;20453;-69
2023/07/21 01:52:50;;;;;;;56.50;2.27;;;;;;;;;;5092054;28;20474;-70
2023/07/21 01:55:20;;;;;;;56.70;2.40;;;;;;;;;;5091981;28;20462;-69
2023/07/21 01:57:50;;;;;;;56.67;2.20;;;;;;;;;;5092164;28;20490;-70
2023/07/21 02:00:22;;;;;;;57.00;2.40;;;;;;;;;;5092249;28;20461;-70
2023/07/21 02:02:50;;;;;;;56.60;2.17;;;;;;;;;;5092056;28;20470;-68
2023/07/21 02:05:20;;;;;;;56.43;2.20;;;;;;;;;;5091969;28;20472;-66
2023/07/21 02:07:47;;;;;;;56.70;2.20;;;;;;;;;;5091831;28;20942;-68
2023/07/21 02:10:14;;;;;;;56.83;2.30;;;;;;;;;;5091583;28;20458;-68
2023/07/21 02:12:42;;;;;;;56.80;2.53;;;;;;;;;;5091936;28;20477;-69
2023/07/21 02:15:10;;;;;;;57.30;2.10;;;;;;;;;;5091724;28;20450;-70
2023/07/21 02:17:38;;;;;;;56.80;2.40;;;;;;;;;;5091524;28;21025;-69
2023/07/21 02:20:08;;;;;;;56.73;2.20;;;;;;;;;;5091698;28;20774;-69
2023/07/21 02:22:35;;;;;;;56.90;2.10;;;;;;;;;;5091801;28;20470;-69
2023/07/21 02:25:04;;;;;;;56.47;2.20;;;;;;;;;;5091477;28;20473;-69
2023/07/21 02:27:31;;;;;;;56.53;2.13;;;;;;;;;;5091708;28;20455;-70
2023/07/21 02:29:58;;;;;;;57.30;2.97;;;;;;;;;;5091848;28;20446;-69
2023/07/21 02:32:25;;;;;;;56.47;2.00;;;;;;;;;;5091325;28;20838;-69
2023/07/21 02:34:54;;;;;;;56.67;2.00;;;;;;;;;;5091586;28;20502;-69
2023/07/21 02:37:21;;;;;;;57.00;2.20;;;;;;;;;;5091400;28;20501;-69
2023/07/21 02:39:48;;;;;;;56.63;2.10;;;;;;;;;;5091534;28;20473;-69
2023/07/21 02:42:15;;;;;;;57.80;2.77;;;;;;;;;;5091268;28;20997;-70
2023/07/21 02:44:42;;;;;;;56.67;2.27;;;;;;;;;;5091517;28;20460;-68
2023/07/21 02:47:09;;;;;;;57.47;2.40;;;;;;;;;;5091426;28;20446;-69
2023/07/21 02:49:37;;;;;;;56.73;2.40;;;;;;;;;;5091352;28;20461;-69
2023/07/21 02:52:05;;;;;;;56.57;2.00;;;;;;;;;;5090767;28;20470;-70
2023/07/21 02:54:33;;;;;;;56.37;2.10;;;;;;;;;;5091528;28;20458;-69
2023/07/21 02:57:00;;;;;;;56.87;2.50;;;;;;;;;;5091291;28;20827;-69
2023/07/21 02:59:27;;;;;;;56.70;2.20;;;;;;;;;;5091372;28;20446;-69
2023/07/21 03:01:55;;;;;;;57.20;2.50;;;;;;;;;;5090984;28;20471;-68
2023/07/21 03:04:23;;;;;;;56.60;2.10;;;;;;;;;;5077049;28;20455;-68
2023/07/21 03:06:50;;;;;;;56.70;2.20;;;;;;;;;;5074404;28;20888;-69
2023/07/21 03:09:19;;;;;;;56.67;2.50;;;;;;;;;;5083053;28;20447;-69
2023/07/21 03:11:46;;;;;;;56.57;2.10;;;;;;;;;;5082559;28;20473;-69
2023/07/21 03:14:13;;;;;;;56.50;2.30;;;;;;;;;;5083421;28;20449;-69
2023/07/21 03:16:41;;;;;;;56.67;2.13;;;;;;;;;;5092414;28;20448;-69
2023/07/21 03:19:08;;;;;;;56.57;2.20;;;;;;;;;;5095224;28;20450;-69
2023/07/21 03:21:35;;;;;;;56.60;2.17;;;;;;;;;;5094756;28;20477;-68
2023/07/21 03:24:02;;;;;;;56.70;2.10;;;;;;;;;;5095140;28;20453;-69
2023/07/21 03:26:31;;;;;;;56.53;2.50;;;;;;;;;;5095140;28;20446;-69
2023/07/21 03:28:58;;;;;;;57.00;2.57;;;;;;;;;;5095256;28;20446;-69
2023/07/21 03:31:25;;;;;;;57.20;2.30;;;;;;;;;;5094627;28;20462;-69
2023/07/21 03:33:52;;;;;;;56.90;2.10;;;;;;;;;;5094721;28;20473;-68
2023/07/21 03:36:20;;;;;;;56.97;2.20;;;;;;;;;;5094848;28;20942;-69
2023/07/21 03:38:47;;;;;;;56.77;2.10;;;;;;;;;;5094890;28;20923;-69
2023/07/21 03:41:14;;;;;;;56.80;2.23;;;;;;;;;;5094261;28;20995;-69
2023/07/21 03:43:43;;;;;;;56.67;2.03;;;;;;;;;;5094760;28;20447;-68
2023/07/21 03:46:10;;;;;;;57.80;3.47;;;;;;;;;;5094722;28;20453;-69
2023/07/21 03:48:37;;;;;;;56.77;2.20;;;;;;;;;;5094692;28;20438;-69
2023/07/21 03:51:05;;;;;;;56.80;2.30;;;;;;;;;;5094386;28;20434;-69
2023/07/21 03:53:32;;;;;;;56.73;2.10;;;;;;;;;;5094797;28;20458;-69
2023/07/21 03:56:00;;;;;;;56.57;2.30;;;;;;;;;;5094299;28;20458;-69
2023/07/21 03:58:27;;;;;;;56.67;2.40;;;;;;;;;;5094282;28;20485;-69
2023/07/21 04:00:58;;;;;;;57.03;2.40;;;;;;;;;;5093858;28;20501;-69
2023/07/21 04:03:25;;;;;;;56.83;2.30;;;;;;;;;;5094646;28;20476;-69
2023/07/21 04:05:52;;;;;;;56.57;2.10;;;;;;;;;;5094161;28;20450;-69
2023/07/21 04:08:20;;;;;;;56.87;2.10;;;;;;;;;;5094290;28;20453;-69
2023/07/21 04:10:47;;;;;;;56.57;2.10;;;;;;;;;;5094160;28;20450;-69
2023/07/21 04:13:14;;;;;;;56.90;2.30;;;;;;;;;;5094558;28;20477;-69
2023/07/21 04:15:41;;;;;;;56.73;2.07;;;;;;;;;;5094096;28;20448;-69
2023/07/21 04:18:09;;;;;;;56.67;2.20;;;;;;;;;;5094096;28;20485;-69
2023/07/21 04:20:37;;;;;;;57.10;2.43;;;;;;;;;;5093846;28;20451;-70
2023/07/21 04:23:04;;;;;;;56.57;2.00;;;;;;;;;;5081429;28;20843;-70
2023/07/21 04:25:32;;;;;;;57.83;2.30;;;;;;;;;;5073605;28;20444;-70
2023/07/21 04:27:59;;;;;;;56.73;2.10;;;;;;;;;;5073270;28;20456;-70
2023/07/21 04:30:26;;;;;;;56.87;2.30;;;;;;;;;;5073688;28;20451;-70
2023/07/21 04:32:53;;;;;;;56.67;2.10;;;;;;;;;;5073283;28;20475;-70
2023/07/21 04:35:22;;;;;;;56.67;1.97;;;;;;;;;;5073394;28;20454;-70
2023/07/21 04:37:49;;;;;;;56.43;2.00;;;;;;;;;;5073549;28;20475;-70
2023/07/21 04:40:17;;;;;;;56.50;1.90;;;;;;;;;;5073122;28;20444;-70
2023/07/21 04:42:45;;;;;;;56.80;2.10;;;;;;;;;;5073590;28;20567;-70
2023/07/21 04:45:12;;;;;;;57.03;2.20;;;;;;;;;;5073549;28;20509;-69
2023/07/21 04:47:42;;;;;;;56.57;2.30;;;;;;;;;;5073436;28;20477;-70
2023/07/21 04:50:10;;;;;;;56.53;2.30;;;;;;;;;;5072984;28;20455;-68
2023/07/21 04:52:38;;;;;;;56.53;2.27;;;;;;;;;;5073202;28;20479;-68
2023/07/21 04:55:06;;;;;;;56.57;2.23;;;;;;;;;;5073330;28;20463;-70
2023/07/21 04:57:34;;;;;;;56.80;2.40;;;;;;;;;;5073079;28;20522;-70
2023/07/21 05:00:01;;;;;;;56.57;2.10;;;;;;;;;;5073116;28;20454;-70
2023/07/21 05:02:29;;;;;;;56.53;2.17;;;;;;;;;;5071786;28;20481;-70
2023/07/21 05:04:58;;;;;;;58.43;2.77;;;;;;;;;;5082405;28;20451;-71
2023/07/21 05:07:26;;;;;;;56.37;2.20;;;;;;;;;;5084395;28;20462;-70
2023/07/21 05:09:55;;;;;;;56.80;2.30;;;;;;;;;;5082671;28;20444;-70
2023/07/21 05:12:24;;;;;;;56.57;1.93;;;;;;;;;;5092684;28;21048;-70
2023/07/21 05:14:51;;;;;;;56.77;2.50;;;;;;;;;;5093108;28;20585;-70
2023/07/21 05:17:18;;;;;;;56.90;2.40;;;;;;;;;;5092892;28;20446;-70
2023/07/21 05:19:45;;;;;;;56.50;2.10;;;;;;;;;;5092894;28;20446;-69
2023/07/21 05:22:13;;;;;;;56.60;2.57;;;;;;;;;;5092909;28;20672;-70
2023/07/21 05:24:40;;;;;;;57.13;2.20;;;;;;;;;;5092777;28;20972;-70
2023/07/21 05:27:08;;;;;;;56.57;2.10;;;;;;;;;;5092790;28;20537;-70
2023/07/21 05:29:36;;;;;;;56.07;2.20;;;;;;;;;;5092936;28;20447;-70
2023/07/21 05:32:05;;;;;;;57.40;2.43;;;;;;;;;;5092435;28;20466;-69
2023/07/21 05:34:33;;;;;;;56.70;2.00;;;;;;;;;;5091395;28;20450;-70
2023/07/21 05:37:00;;;;;;;56.47;1.90;;;;;;;;;;5092452;28;20549;-70
2023/07/21 05:39:29;;;;;;;56.80;2.13;;;;;;;;;;5091519;28;20494;-71
2023/07/21 05:41:56;;;;;;;56.47;2.50;;;;;;;;;;5092109;28;20451;-70
2023/07/21 05:44:25;;;;;;;56.07;2.00;;;;;;;;;;5091900;28;20946;-69
2023/07/21 05:46:52;;;;;;;56.60;2.30;;;;;;;;;;5092091;28;20442;-70
2023/07/21 05:49:19;;;;;;;57.30;2.90;;;;;;;;;;5092529;28;20962;-71
2023/07/21 05:51:47;;;;;;;56.47;2.03;;;;;;;;;;5076426;28;20561;-71
2023/07/21 05:54:15;;;;;;;56.77;2.47;;;;;;;;;;5080156;28;20467;-71
2023/07/21 05:56:42;;;;;;;56.50;2.10;;;;;;;;;;5080158;28;20454;-70
2023/07/21 05:59:09;;;;;;;56.53;2.13;;;;;;;;;;5092870;28;20481;-71
2023/07/21 06:01:37;;;;;;;56.77;2.33;;;;;;;;;;5091701;28;20485;-70
2023/07/21 06:04:05;;;;;;;56.90;2.27;;;;;;;;;;5092165;28;20450;-70
2023/07/21 06:06:32;;;;;;;56.40;2.30;;;;;;;;;;5092424;28;20446;-70
2023/07/21 06:08:59;;;;;;;56.70;2.30;;;;;;;;;;5092306;28;20929;-70
2023/07/21 06:11:27;;;;;;;56.60;1.90;;;;;;;;;;5092017;28;20470;-70
2023/07/21 06:13:54;;;;;;;56.90;2.13;;;;;;;;;;5091985;28;20664;-70
2023/07/21 06:16:23;;;;;;;56.50;2.13;;;;;;;;;;5091885;28;20450;-70
2023/07/21 06:18:52;;;;;;;56.63;2.07;;;;;;;;;;5092006;28;20903;-69
2023/07/21 06:21:20;;;;;;;57.00;2.00;;;;;;;;;;5091424;28;20462;-70
2023/07/21 06:23:48;;;;;;;56.57;2.20;;;;;;;;;;5091955;28;20451;-70
2023/07/21 06:26:15;;;;;;;56.67;2.00;;;;;;;;;;5091807;28;20896;-70
2023/07/21 06:28:42;;;;;;;56.80;2.13;;;;;;;;;;5091566;28;20443;-70
2023/07/21 06:31:11;;;;;;;56.77;2.33;;;;;;;;;;5091075;28;20450;-70
2023/07/21 06:33:38;;;;;;;56.70;2.57;;;;;;;;;;5091566;28;20480;-70
2023/07/21 06:36:06;;;;;;;57.10;2.20;;;;;;;;;;5091521;28;20453;-71
2023/07/21 06:38:34;;;;;;;56.60;2.10;;;;;;;;;;5091483;28;20478;-70
2023/07/21 06:41:04;;;;;;;56.57;2.00;;;;;;;;;;5091221;28;20537;-70
2023/07/21 06:43:32;;;;;;;56.70;2.10;;;;;;;;;;5091648;28;20487;-70
2023/07/21 06:45:59;;;;;;;56.43;2.20;;;;;;;;;;5091531;28;20868;-70
2023/07/21 06:48:26;;;;;;;56.80;2.20;;;;;;;;;;5091794;28;20447;-70
2023/07/21 06:50:53;;;;;;;57.10;2.60;;;;;;;;;;5090968;28;20446;-70
2023/07/21 06:53:22;;;;;;;56.80;2.30;;;;;;;;;;5091334;28;20474;-71
2023/07/21 06:55:51;;;;;;;56.30;2.10;;;;;;;;;;5091074;28;20469;-71
2023/07/21 06:58:18;;;;;;;56.50;2.27;;;;;;;;;;5091114;28;20479;-70
2023/07/21 07:00:46;;;;;;;56.57;2.17;;;;;;;;;;5091057;28;20878;-70
2023/07/21 07:03:13;;;;;;;56.67;2.07;;;;;;;;;;5083545;28;20967;-70
2023/07/21 07:05:41;;;;;;;56.23;2.10;;;;;;;;;;5071471;28;20451;-71
2023/07/21 07:08:10;;;;;;;56.43;2.30;;;;;;;;;;5079327;28;20921;-71
2023/07/21 07:10:38;;;;;;;56.80;1.97;;;;;;;;;;5086922;28;20518;-71
2023/07/21 07:13:06;;;;;;;56.77;2.80;;;;;;;;;;5091336;28;20559;-70
2023/07/21 07:15:33;;;;;;;56.80;2.03;;;;;;;;;;5083392;28;20825;-71
2023/07/21 07:18:00;;;;;;;56.27;2.20;;;;;;;;;;5082710;28;20448;-70
2023/07/21 07:20:28;;;;;;;56.27;1.80;;;;;;;;;;5091041;28;20450;-70
2023/07/21 07:22:56;;;;;;;55.90;2.00;;;;;;;;;;5091093;28;20492;-71
2023/07/21 07:25:24;;;;;;;56.30;1.90;;;;;;;;;;5091204;28;20450;-70
2023/07/21 07:27:53;;;;;;;56.30;1.93;;;;;;;;;;5091276;28;20544;-71
2023/07/21 07:30:21;;;;;;;56.20;1.80;;;;;;;;;;5090990;28;20442;-70
2023/07/21 07:32:48;;;;;;;56.57;2.10;;;;;;;;;;5091033;28;20466;-70
2023/07/21 07:35:16;;;;;;;57.07;2.33;;;;;;;;;;5091078;28;20468;-70
2023/07/21 07:37:43;;;;;;;56.10;1.83;;;;;;;;;;5091065;28;20954;-70
2023/07/21 07:40:11;;;;;;;56.27;1.73;;;;;;;;;;5090816;28;20482;-69
2023/07/21 07:42:38;;;;;;;57.00;2.10;;;;;;;;;;5090832;28;20466;-71
2023/07/21 07:45:07;;;;;;;55.97;1.70;;;;;;;;;;5091102;28;20450;-70
2023/07/21 07:47:35;;;;;;;57.30;2.43;;;;;;;;;;5090778;28;20499;-71
2023/07/21 07:50:02;;;;;;;56.90;2.37;;;;;;;;;;5090764;28;20496;-71
2023/07/21 07:52:30;;;;;;;56.40;1.90;;;;;;;;;;5091089;28;20825;-70
2023/07/21 07:54:57;;;;;;;56.33;1.70;;;;;;;;;;5090718;28;20565;-70
2023/07/21 07:57:26;;;;;;;55.93;1.70;;;;;;;;;;5090713;28;20442;-71
2023/07/21 07:59:53;;;;;;;56.07;1.87;;;;;;;;;;5090649;28;20482;-71
2023/07/21 08:02:21;;;;;;;56.60;2.20;;;;;;;;;;5091171;28;20469;-71
2023/07/21 08:04:48;;;;;;;56.90;2.13;;;;;;;;;;5094843;28;20938;-70
2023/07/21 08:07:16;;;;;;;55.83;1.90;;;;;;;;;;5094132;28;20454;-71
2023/07/21 08:09:43;;;;;;;56.33;2.17;;;;;;;;;;5094339;28;20812;-72
2023/07/21 08:12:10;;;;;;;55.87;1.90;;;;;;;;;;5094023;28;20462;-71
2023/07/21 08:14:37;;;;;;;56.93;2.93;;;;;;;;;;5087111;28;20459;-71
2023/07/21 08:17:04;;;;;;;56.27;2.20;;;;;;;;;;5083890;28;20439;-70
2023/07/21 08:19:33;;;;;;;56.40;2.00;;;;;;;;;;5093120;28;20574;-71
2023/07/21 08:22:04;;;;;;;55.47;1.90;;;;;;;;;;5092838;28;20849;-71
2023/07/21 08:24:31;;;;;;;56.77;1.80;;;;;;;;;;5092889;28;20504;-71
2023/07/21 08:26:59;;;;;;;55.67;1.80;;;;;;;;;;5092698;28;20446;-71
2023/07/21 08:29:26;;;;;;;55.77;1.70;;;;;;;;;;5092890;28;20516;-69
2023/07/21 08:31:53;;;;;;;56.50;2.00;;;;;;;;;;5093067;28;20494;-70
2023/07/21 08:34:20;;;;;;;56.60;2.17;;;;;;;;;;5094022;28;20447;-70
2023/07/21 08:36:48;;;;;;;56.17;1.90;;;;;;;;;;5093804;28;20992;-71
2023/07/21 08:39:16;;;;;;;55.70;2.00;;;;;;;;;;5093992;28;20478;-71
2023/07/21 08:41:46;;;;;;;56.50;1.73;;;;;;;;;;5093414;28;20470;-70
2023/07/21 08:44:14;;;;;;;55.77;1.70;;;;;;;;;;5093797;28;20450;-70
2023/07/21 08:46:41;;;;;;;56.37;2.00;;;;;;;;;;5093763;28;20442;-71
2023/07/21 08:49:09;;;;;;;56.07;1.67;;;;;;;;;;5093493;28;20457;-71
2023/07/21 08:51:36;;;;;;;56.10;1.60;;;;;;;;;;5093152;28;20477;-71
2023/07/21 08:54:05;;;;;;;56.27;1.83;;;;;;;;;;5093711;28;20496;-71
2023/07/21 08:56:32;;;;;;;55.87;1.90;;;;;;;;;;5093346;28;20452;-71
2023/07/21 08:58:59;;;;;;;57.00;2.53;;;;;;;;;;5093613;28;20487;-71
2023/07/21 09:01:26;;;;;;;56.27;1.90;;;;;;;;;;5093012;28;20466;-71
2023/07/21 09:03:53;;;;;;;55.97;1.80;;;;;;;;;;5093506;28;20447;-70
2023/07/21 09:06:20;;;;;;;55.93;1.70;;;;;;;;;;5093250;28;20458;-70
2023/07/21 09:08:48;;;;;;;56.27;1.80;;;;;;;;;;5093194;28;20529;-71
2023/07/21 09:11:16;;;;;;;56.03;1.70;;;;;;;;;;5092862;28;20469;-69
2023/07/21 09:13:51;;;;;;;56.50;1.87;;;;;;;;;;5093346;28;20450;-71
2023/07/21 09:16:19;;;;;;;55.87;1.90;;;;;;;;;;5093340;28;20449;-71
2023/07/21 09:18:48;;;;;;;55.87;1.70;;;;;;;;;;5092981;28;20480;-71
2023/07/21 09:21:18;;;;;;;56.30;1.80;;;;;;;;;;5092870;28;20459;-71
2023/07/21 09:23:46;;;;;;;56.27;1.80;;;;;;;;;;5092640;28;20478;-71
2023/07/21 09:26:14;;;;;;;55.93;1.70;;;;;;;;;;5092758;28;20450;-71
2023/07/21 09:28:43;;;;;;;56.07;2.00;;;;;;;;;;5092922;28;20539;-70
2023/07/21 09:31:11;;;;;;;56.17;1.60;;;;;;;;;;5092668;28;20451;-71
2023/07/21 09:33:38;;;;;;;55.50;1.60;;;;;;;;;;5093105;28;20451;-70
2023/07/21 09:36:09;;;;;;;56.50;1.80;;;;;;;;;;5092478;28;20957;-71
2023/07/21 09:38:37;;;;;;;56.03;1.70;;;;;;;;;;5092718;28;20942;-71
2023/07/21 09:41:05;;;;;;;56.33;1.90;;;;;;;;;;5092220;28;20484;-71
2023/07/21 09:43:33;;;;;;;55.93;1.60;;;;;;;;;;5092542;28;20532;-71
2023/07/21 09:46:02;;;;;;;56.17;1.90;;;;;;;;;;5092554;28;20796;-71
2023/07/21 09:48:29;;;;;;;56.17;1.83;;;;;;;;;;5092277;28;20457;-71
2023/07/21 09:50:58;;;;;;;56.20;1.77;;;;;;;;;;5091938;28;20447;-71
2023/07/21 09:53:26;;;;;;;55.70;1.70;;;;;;;;;;5092344;28;20462;-71
2023/07/21 09:55:53;;;;;;;56.80;1.80;;;;;;;;;;5092129;28;20454;-70
2023/07/21 09:58:25;;;;;;;56.50;2.10;;;;;;;;;;5092659;28;20806;-71
2023/07/21 10:00:53;;;;;;;56.03;1.70;;;;;;;;;;5091939;28;20508;-71
2023/07/21 10:03:22;;;;;;;56.00;1.60;;;;;;;;;;5091915;28;20994;-71
2023/07/21 10:05:49;;;;;;;56.00;1.50;;;;;;;;;;5092452;28;20507;-71
2023/07/21 10:08:17;;;;;;;56.27;1.93;;;;;;;;;;5092006;28;20454;-70
2023/07/21 10:10:44;;;;;;;56.20;1.70;;;;;;;;;;5091932;28;20442;-71
2023/07/21 10:13:13;;;;;;;56.00;1.50;;;;;;;;;;5091920;28;20977;-72
2023/07/21 10:15:40;;;;;;;56.20;1.70;;;;;;;;;;5091947;28;20455;-69
2023/07/21 10:18:10;;;;;;;56.07;1.70;;;;;;;;;;5091818;28;20446;-69
2023/07/21 10:20:40;;;;;;;55.87;1.80;;;;;;;;;;5091502;28;20489;-69
2023/07/21 10:23:07;;;;;;;56.17;1.80;;;;;;;;;;5092066;28;20466;-69
2023/07/21 10:26:04;;;;;;;55.90;1.70;;;;;;;;;;5091794;28;20446;-69
2023/07/21 10:28:38;;;;;;;55.97;1.93;;;;;;;;;;5029191;28;20445;-68
2023/07/21 10:31:24;;;;;;;55.90;1.60;;;;;;;;;;5079933;28;20455;-68
2023/07/21 10:34:02;;;;;;;57.27;2.93;;;;;;;;;;5091684;28;20449;-71
2023/07/21 10:36:40;;;;;;;55.50;1.60;;;;;;;;;;5091400;28;20449;-70
2023/07/21 10:39:10;;;;;;;55.67;1.80;;;;;;;;;;5091620;28;20452;-71
2023/07/21 10:41:37;;;;;;;55.73;1.60;;;;;;;;;;5091326;28;20470;-70
2023/07/21 10:44:06;;;;;;;55.40;1.40;;;;;;;;;;5091469;28;20450;-71
2023/07/21 10:46:36;;;;;;;55.63;1.70;;;;;;;;;;5091366;28;20834;-71
2023/07/21 10:49:03;;;;;;;55.47;1.50;;;;;;;;;;5091310;28;20448;-71
2023/07/21 10:51:30;;;;;;;55.90;1.87;;;;;;;;;;5091254;28;20477;-71
2023/07/21 10:53:59;;;;;;;55.43;1.60;;;;;;;;;;5091168;28;20521;-71
2023/07/21 10:56:27;;;;;;;55.40;1.70;;;;;;;;;;5091456;28;20450;-71
2023/07/21 10:58:54;;;;;;;55.27;1.60;;;;;;;;;;5091301;28;20503;-71
2023/07/21 11:01:21;;;;;;;55.17;1.50;;;;;;;;;;5090785;28;20482;-71
2023/07/21 11:03:49;;;;;;;55.30;1.60;;;;;;;;;;5091242;28;20443;-70
2023/07/21 11:06:16;;;;;;;55.27;1.70;;;;;;;;;;5091304;28;20503;-71
2023/07/21 11:08:43;;;;;;;55.40;1.70;;;;;;;;;;5091235;28;20911;-71
2023/07/21 11:11:12;;;;;;;55.80;1.60;;;;;;;;;;5091207;28;20787;-71
2023/07/21 11:13:40;;;;;;;56.17;2.03;;;;;;;;;;5091376;28;20452;-71
2023/07/21 11:16:07;;;;;;;55.20;1.60;;;;;;;;;;5091145;28;20446;-71
2023/07/21 11:18:34;;;;;;;55.77;1.90;;;;;;;;;;5091011;28;20827;-71
2023/07/21 11:21:01;;;;;;;55.37;1.67;;;;;;;;;;5075314;28;20486;-71
2023/07/21 11:23:31;;;;;;;55.90;1.93;;;;;;;;;;5077527;28;20839;-71
2023/07/21 11:26:02;;;;;;;55.57;1.67;;;;;;;;;;5081186;28;20443;-71
2023/07/21 11:28:31;;;;;;;55.90;1.70;;;;;;;;;;5091018;28;20441;-71
2023/07/21 11:31:00;;;;;;;55.47;1.60;;;;;;;;;;5083888;28;20446;-71
2023/07/21 11:33:39;;;;;;;55.53;1.70;;;;;;;;;;5076643;28;20494;-70
2023/07/21 11:36:12;;;;;;;55.37;1.70;;;;;;;;;;5082577;28;20443;-71
2023/07/21 11:38:39;;;;;;;55.40;1.50;;;;;;;;;;5093807;28;20446;-71
2023/07/21 11:41:08;;;;;;;55.27;1.47;;;;;;;;;;5094390;28;20484;-72
2023/07/21 11:43:49;;;;;;;55.43;1.70;;;;;;;;;;5094482;28;20553;-71
2023/07/21 11:46:24;;;;;;;55.80;1.67;;;;;;;;;;5094619;28;20545;-71
2023/07/21 11:48:51;;;;;;;55.60;1.70;;;;;;;;;;5094487;28;20480;-71
2023/07/21 11:51:21;;;;;;;55.93;1.57;;;;;;;;;;5094184;28;20434;-71
2023/07/21 11:53:49;;;;;;;55.73;1.60;;;;;;;;;;5094385;28;20478;-70
2023/07/21 11:56:16;;;;;;;55.77;1.70;;;;;;;;;;5094396;28;20466;-71
2023/07/21 11:58:43;;;;;;;56.20;2.00;;;;;;;;;;5094438;28;20453;-71
2023/07/21 12:01:12;;;;;;;56.80;2.00;;;;;;;;;;5094181;28;20849;-70
2023/07/21 12:03:40;;;;;;;56.20;1.80;;;;;;;;;;5094568;28;20451;-71
2023/07/21 12:06:09;;;;;;;56.30;1.80;;;;;;;;;;5094503;28;20450;-70
2023/07/21 12:08:36;;;;;;;56.20;1.90;;;;;;;;;;5094485;28;20482;-70
2023/07/21 12:11:03;;;;;;;56.13;1.90;;;;;;;;;;5094167;28;20508;-71
2023/07/21 12:13:30;;;;;;;56.20;1.90;;;;;;;;;;5094463;28;20449;-70
2023/07/21 12:15:57;;;;;;;56.10;1.80;;;;;;;;;;5094074;28;20829;-70
2023/07/21 12:18:27;;;;;;;57.53;2.87;;;;;;;;;;5094108;28;20446;-70
2023/07/21 12:20:54;;;;;;;55.97;1.80;;;;;;;;;;5093520;28;20478;-70
2023/07/21 12:23:21;;;;;;;56.30;1.90;;;;;;;;;;5094281;28;20543;-71
2023/07/21 12:25:48;;;;;;;56.13;1.90;;;;;;;;;;5094057;28;20528;-70
2023/07/21 12:28:16;;;;;;;56.10;1.60;;;;;;;;;;5094028;28;20442;-71
2023/07/21 12:30:43;;;;;;;56.20;1.80;;;;;;;;;;5093796;28;20839;-70
2023/07/21 12:33:11;;;;;;;55.93;1.90;;;;;;;;;;5093984;28;20651;-71
2023/07/21 12:35:39;;;;;;;56.17;1.80;;;;;;;;;;5094034;28;20451;-71
2023/07/21 12:38:06;;;;;;;55.97;1.80;;;;;;;;;;5093922;28;20970;-70
2023/07/21 12:40:33;;;;;;;56.13;1.70;;;;;;;;;;5093398;28;20540;-70
2023/07/21 12:43:01;;;;;;;55.83;1.67;;;;;;;;;;5093791;28;20470;-71
2023/07/21 12:45:28;;;;;;;56.00;1.60;;;;;;;;;;5093941;28;20448;-70
2023/07/21 12:47:55;;;;;;;56.40;1.60;;;;;;;;;;5093201;28;20935;-71
2023/07/21 12:50:22;;;;;;;56.50;1.80;;;;;;;;;;5093826;28;20442;-70
2023/07/21 12:52:50;;;;;;;56.20;1.80;;;;;;;;;;5093578;28;20466;-71
2023/07/21 12:55:17;;;;;;;55.63;1.50;;;;;;;;;;5093216;28;20508;-71
2023/07/21 12:57:44;;;;;;;56.03;1.60;;;;;;;;;;5093822;28;20447;-71
2023/07/21 13:00:13;;;;;;;56.20;1.60;;;;;;;;;;5092915;28;21036;-70
2023/07/21 13:02:40;;;;;;;56.47;1.70;;;;;;;;;;5093091;28;20527;-70
2023/07/21 13:05:07;;;;;;;56.30;2.23;;;;;;;;;;5093199;28;20451;-71
2023/07/21 13:07:35;;;;;;;56.33;1.70;;;;;;;;;;5093604;28;20453;-71
2023/07/21 13:10:04;;;;;;;55.90;1.80;;;;;;;;;;5092964;28;20454;-70
2023/07/21 13:12:31;;;;;;;56.70;2.10;;;;;;;;;;5092838;28;20477;-71
2023/07/21 13:14:58;;;;;;;56.20;1.60;;;;;;;;;;5093137;28;20533;-71
2023/07/21 13:17:26;;;;;;;56.27;1.70;;;;;;;;;;5093321;28;20446;-71
2023/07/21 13:19:53;;;;;;;56.40;1.73;;;;;;;;;;5087236;28;20460;-71
2023/07/21 13:22:20;;;;;;;56.23;1.70;;;;;;;;;;5083980;28;21081;-71
2023/07/21 13:24:48;;;;;;;56.20;1.60;;;;;;;;;;5083756;28;20454;-71
2023/07/21 13:27:16;;;;;;;56.50;1.60;;;;;;;;;;5080631;28;20451;-70
2023/07/21 13:29:44;;;;;;;56.13;1.67;;;;;;;;;;5080668;28;20446;-71
2023/07/21 13:32:11;;;;;;;56.40;2.00;;;;;;;;;;5084854;28;20545;-70
2023/07/21 13:34:38;;;;;;;57.67;2.17;;;;;;;;;;5092672;28;20958;-71
2023/07/21 13:37:05;;;;;;;55.73;1.80;;;;;;;;;;5092707;28;20453;-71
2023/07/21 13:39:32;;;;;;;56.60;2.00;;;;;;;;;;5093022;28;20457;-71
2023/07/21 13:42:00;;;;;;;55.87;2.00;;;;;;;;;;5091950;28;20485;-70
2023/07/21 13:44:28;;;;;;;56.30;1.80;;;;;;;;;;5092682;28;20888;-70
2023/07/21 13:46:55;;;;;;;56.37;1.70;;;;;;;;;;5092482;28;20934;-71
2023/07/21 13:49:23;;;;;;;55.97;1.70;;;;;;;;;;5092607;28;20458;-70
2023/07/21 13:51:50;;;;;;;56.17;1.90;;;;;;;;;;5091988;28;20970;-70
2023/07/21 13:54:18;;;;;;;55.77;1.77;;;;;;;;;;5092388;28;20454;-71
2023/07/21 13:56:45;;;;;;;55.87;1.60;;;;;;;;;;5092242;28;20450;-71
2023/07/21 13:59:12;;;;;;;56.40;2.00;;;;;;;;;;5092570;28;20446;-71
2023/07/21 14:01:41;;;;;;;56.13;1.87;;;;;;;;;;5091156;28;20496;-71
2023/07/21 14:04:08;;;;;;;56.37;2.20;;;;;;;;;;5092182;28;20500;-70
2023/07/21 14:06:37;;;;;;;56.47;2.10;;;;;;;;;;5091988;28;20446;-70
2023/07/21 14:09:07;;;;;;;56.43;2.57;;;;;;;;;;5091931;28;20472;-71
2023/07/21 14:11:34;;;;;;;56.60;1.80;;;;;;;;;;5092078;28;20936;-70
2023/07/21 14:14:01;;;;;;;57.07;1.90;;;;;;;;;;5092186;28;20457;-70
2023/07/21 14:16:29;;;;;;;56.33;1.80;;;;;;;;;;5092259;28;20934;-70
2023/07/21 14:18:58;;;;;;;56.67;1.80;;;;;;;;;;5092036;28;20580;-70
2023/07/21 14:21:26;;;;;;;56.90;2.00;;;;;;;;;;5091454;28;20478;-70
2023/07/21 14:23:54;;;;;;;56.67;1.83;;;;;;;;;;5091996;28;20459;-70
2023/07/21 14:26:21;;;;;;;56.37;2.00;;;;;;;;;;5091828;28;20545;-70
2023/07/21 14:28:48;;;;;;;56.70;2.10;;;;;;;;;;5091848;28;20457;-70
2023/07/21 14:31:15;;;;;;;56.73;1.90;;;;;;;;;;5091566;28;20438;-70
2023/07/21 14:33:43;;;;;;;56.67;2.10;;;;;;;;;;5091740;28;20446;-69
2023/07/21 14:36:11;;;;;;;56.67;2.30;;;;;;;;;;5091524;28;20442;-70